sensor_id;sensor_type;location;lat;lon;timestamp;pressure;altitude;pressure_sealevel;temperature;humidity
78144;BME280;67394;52.522;13.622;2023-09-19T00:01:27;100024.16;;;17.35;100.00
78144;BME280;67394;52.522;13.622;2023-09-19T00:03:54;100028.44;;;17.36;100.00
78144;BME280;67394;52.522;13.622;2023-09-19T00:06:20;100015.66;;;17.31;100.00
78144;BME280;67394;52.522;13.622;2023-09-19T00:08:47;100020.88;;;17.30;100.00
78144;BME280;67394;52.522;13.622;2023-09-19T00:11:14;100021.84;;;17.27;100.00
78144;BME280;67394;52.522;13.622;2023-09-19T00:13:40;100022.81;;;17.25;100.00
78144;BME280;67394;52.522;13.622;2023-09-19T00:16:11;100021.44;;;17.16;100.00
78144;BME280;67394;52.522;13.622;2023-09-19T00:18:38;100016.25;;;17.16;100.00
78144;BME280;67394;52.522;13.622;2023-09-19T00:21:05;100022.19;;;17.18;100.00
78144;BME280;67394;52.522;13.622;2023-09-19T00:23:32;100017.25;;;17.12;100.00
78144;BME280;67394;52.522;13.622;2023-09-19T00:25:59;100018.19;;;17.09;100.00
78144;BME280;67394;52.522;13.622;2023-09-19T00:28:28;100017.41;;;17.07;100.00
78144;BME280;67394;52.522;13.622;2023-09-19T00:30:55;100014.88;;;17.06;100.00
78144;BME280;67394;52.522;13.622;2023-09-19T00:33:22;100008.13;;;17.02;100.00
78144;BME280;67394;52.522;13.622;2023-09-19T00:35:50;100006.44;;;17.01;100.00
78144;BME280;67394;52.522;13.622;2023-09-19T00:38:17;100010.03;;;16.97;100.00
78144;BME280;67394;52.522;13.622;2023-09-19T00:40:44;100007.50;;;16.95;100.00
78144;BME280;67394;52.522;13.622;2023-09-19T00:43:11;100005.00;;;16.94;100.00
78144;BME280;67394;52.522;13.622;2023-09-19T00:45:38;100010.28;;;16.91;100.00
78144;BME280;67394;52.522;13.622;2023-09-19T00:48:08;100014.66;;;16.89;100.00
78144;BME280;67394;52.522;13.622;2023-09-19T00:50:36;100005.25;;;16.86;100.00
78144;BME280;67394;52.522;13.622;2023-09-19T00:53:02;100006.03;;;16.88;100.00
78144;BME280;67394;52.522;13.622;2023-09-19T00:55:31;100013.03;;;16.86;100.00
78144;BME280;67394;52.522;13.622;2023-09-19T00:57:57;100010.63;;;16.81;100.00
78144;BME280;67394;52.522;13.622;2023-09-19T01:00:24;100010.47;;;16.84;100.00
78144;BME280;67394;52.522;13.622;2023-09-19T01:02:51;100002.91;;;16.80;100.00
78144;BME280;67394;52.522;13.622;2023-09-19T01:05:18;100016.00;;;16.75;100.00
78144;BME280;67394;52.522;13.622;2023-09-19T01:07:45;100016.84;;;16.76;100.00
78144;BME280;67394;52.522;13.622;2023-09-19T01:10:14;100011.81;;;16.73;100.00
78144;BME280;67394;52.522;13.622;2023-09-19T01:13:07;100014.44;;;16.71;100.00
78144;BME280;67394;52.522;13.622;2023-09-19T01:29:44;100022.31;;;16.68;100.00
78144;BME280;67394;52.522;13.622;2023-09-19T01:32:16;100013.84;;;16.63;100.00
78144;BME280;67394;52.522;13.622;2023-09-19T01:34:49;100009.50;;;16.64;100.00
78144;BME280;67394;52.522;13.622;2023-09-19T01:37:17;100012.09;;;16.64;100.00
78144;BME280;67394;52.522;13.622;2023-09-19T01:39:47;100011.34;;;16.60;100.00
78144;BME280;67394;52.522;13.622;2023-09-19T01:45:17;100020.00;;;16.59;100.00
78144;BME280;67394;52.522;13.622;2023-09-19T01:47:52;100023.50;;;16.58;100.00
78144;BME280;67394;52.522;13.622;2023-09-19T01:50:35;100013.28;;;16.54;100.00
78144;BME280;67394;52.522;13.622;2023-09-19T01:53:07;100021.06;;;16.54;100.00
78144;BME280;67394;52.522;13.622;2023-09-19T01:55:41;100018.47;;;16.54;100.00
78144;BME280;67394;52.522;13.622;2023-09-19T01:58:32;100020.22;;;16.53;100.00
78144;BME280;67394;52.522;13.622;2023-09-19T02:01:00;100021.91;;;16.54;100.00
78144;BME280;67394;52.522;13.622;2023-09-19T02:03:27;100021.06;;;16.54;100.00
78144;BME280;67394;52.522;13.622;2023-09-19T02:05:54;100018.59;;;16.51;100.00
78144;BME280;67394;52.522;13.622;2023-09-19T02:08:22;100013.44;;;16.51;100.00
78144;BME280;67394;52.522;13.622;2023-09-19T02:10:49;100021.28;;;16.47;100.00
78144;BME280;67394;52.522;13.622;2023-09-19T02:13:19;100020.44;;;16.47;100.00
78144;BME280;67394;52.522;13.622;2023-09-19T02:15:46;100027.44;;;16.43;100.00
78144;BME280;67394;52.522;13.622;2023-09-19T02:18:13;100037.97;;;16.39;100.00
78144;BME280;67394;52.522;13.622;2023-09-19T02:20:40;100031.97;;;16.38;100.00
78144;BME280;67394;52.522;13.622;2023-09-19T02:23:07;100032.94;;;16.34;100.00
78144;BME280;67394;52.522;13.622;2023-09-19T02:25:34;100037.31;;;16.32;100.00
78144;BME280;67394;52.522;13.622;2023-09-19T02:28:01;100039.06;;;16.32;100.00
78144;BME280;67394;52.522;13.622;2023-09-19T02:30:28;100033.13;;;16.30;100.00
78144;BME280;67394;52.522;13.622;2023-09-19T02:32:54;100038.38;;;16.27;100.00
78144;BME280;67394;52.522;13.622;2023-09-19T02:35:21;100040.19;;;16.25;100.00
78144;BME280;67394;52.522;13.622;2023-09-19T02:37:48;100045.53;;;16.20;100.00
78144;BME280;67394;52.522;13.622;2023-09-19T02:40:15;100048.03;;;16.22;100.00
78144;BME280;67394;52.522;13.622;2023-09-19T02:42:42;100050.75;;;16.19;100.00
78144;BME280;67394;52.522;13.622;2023-09-19T02:45:09;100043.88;;;16.18;100.00
78144;BME280;67394;52.522;13.622;2023-09-19T02:47:35;100042.19;;;16.17;100.00
78144;BME280;67394;52.522;13.622;2023-09-19T02:50:02;100051.69;;;16.16;100.00
78144;BME280;67394;52.522;13.622;2023-09-19T02:52:29;100055.25;;;16.12;100.00
78144;BME280;67394;52.522;13.622;2023-09-19T02:54:56;100053.69;;;16.08;100.00
78144;BME280;67394;52.522;13.622;2023-09-19T02:57:22;100064.09;;;16.05;100.00
78144;BME280;67394;52.522;13.622;2023-09-19T02:59:49;100062.41;;;16.04;100.00
78144;BME280;67394;52.522;13.622;2023-09-19T03:02:16;100072.00;;;16.00;100.00
78144;BME280;67394;52.522;13.622;2023-09-19T03:04:42;100072.13;;;15.97;100.00
78144;BME280;67394;52.522;13.622;2023-09-19T03:07:09;100067.03;;;15.94;100.00
78144;BME280;67394;52.522;13.622;2023-09-19T03:09:36;100070.59;;;15.90;100.00
78144;BME280;67394;52.522;13.622;2023-09-19T03:12:03;100068.81;;;15.92;100.00
78144;BME280;67394;52.522;13.622;2023-09-19T03:14:29;100079.19;;;15.91;100.00
78144;BME280;67394;52.522;13.622;2023-09-19T03:16:56;100069.81;;;15.88;100.00
78144;BME280;67394;52.522;13.622;2023-09-19T03:19:22;100076.81;;;15.85;100.00
78144;BME280;67394;52.522;13.622;2023-09-19T03:21:49;100072.59;;;15.82;100.00
78144;BME280;67394;52.522;13.622;2023-09-19T03:24:17;100073.41;;;15.84;100.00
78144;BME280;67394;52.522;13.622;2023-09-19T03:26:43;100069.13;;;15.83;100.00
78144;BME280;67394;52.522;13.622;2023-09-19T03:29:10;100073.47;;;15.81;100.00
78144;BME280;67394;52.522;13.622;2023-09-19T03:31:36;100074.38;;;15.80;100.00
78144;BME280;67394;52.522;13.622;2023-09-19T03:34:03;100076.88;;;15.83;100.00
78144;BME280;67394;52.522;13.622;2023-09-19T03:36:30;100074.28;;;15.83;100.00
78144;BME280;67394;52.522;13.622;2023-09-19T03:38:57;100077.91;;;15.78;100.00
78144;BME280;67394;52.522;13.622;2023-09-19T03:41:23;100083.97;;;15.77;100.00
78144;BME280;67394;52.522;13.622;2023-09-19T03:43:50;100082.13;;;15.80;100.00
78144;BME280;67394;52.522;13.622;2023-09-19T03:46:17;100086.53;;;15.78;100.00
78144;BME280;67394;52.522;13.622;2023-09-19T03:48:44;100083.97;;;15.77;100.00
78144;BME280;67394;52.522;13.622;2023-09-19T03:51:10;100085.72;;;15.76;100.00
78144;BME280;67394;52.522;13.622;2023-09-19T03:53:36;100089.19;;;15.75;100.00
78144;BME280;67394;52.522;13.622;2023-09-19T03:56:04;100085.69;;;15.78;100.00
78144;BME280;67394;52.522;13.622;2023-09-19T03:58:30;100084.75;;;15.79;100.00
78144;BME280;67394;52.522;13.622;2023-09-19T04:00:57;100091.50;;;15.84;100.00
78144;BME280;67394;52.522;13.622;2023-09-19T04:03:24;100097.16;;;15.95;100.00
78144;BME280;67394;52.522;13.622;2023-09-19T04:05:51;100094.38;;;16.01;100.00
78144;BME280;67394;52.522;13.622;2023-09-19T04:08:17;100102.50;;;16.17;100.00
78144;BME280;67394;52.522;13.622;2023-09-19T04:10:44;100102.47;;;16.19;100.00
78144;BME280;67394;52.522;13.622;2023-09-19T04:13:11;100102.47;;;16.19;100.00
78144;BME280;67394;52.522;13.622;2023-09-19T04:15:37;100102.50;;;16.17;100.00
78144;BME280;67394;52.522;13.622;2023-09-19T04:18:04;100100.75;;;16.18;100.00
78144;BME280;67394;52.522;13.622;2023-09-19T04:20:30;100110.25;;;16.17;100.00
78144;BME280;67394;52.522;13.622;2023-09-19T04:22:57;100105.94;;;16.18;100.00
78144;BME280;67394;52.522;13.622;2023-09-19T04:25:24;100113.59;;;16.21;100.00
78144;BME280;67394;52.522;13.622;2023-09-19T04:27:50;100112.28;;;16.34;100.00
78144;BME280;67394;52.522;13.622;2023-09-19T04:30:17;100116.06;;;16.24;100.00
78144;BME280;67394;52.522;13.622;2023-09-19T04:32:43;100115.94;;;16.28;100.00
78144;BME280;67394;52.522;13.622;2023-09-19T04:35:10;100113.13;;;16.34;100.00
78144;BME280;67394;52.522;13.622;2023-09-19T04:37:38;100120.09;;;16.32;100.00
78144;BME280;67394;52.522;13.622;2023-09-19T04:40:09;100124.53;;;16.29;100.00
78144;BME280;67394;52.522;13.622;2023-09-19T04:42:36;100127.81;;;16.34;100.00
78144;BME280;67394;52.522;13.622;2023-09-19T04:45:02;100126.81;;;16.38;99.95
78144;BME280;67394;52.522;13.622;2023-09-19T04:47:30;100136.59;;;16.30;100.00
78144;BME280;67394;52.522;13.622;2023-09-19T04:49:57;100145.31;;;16.26;100.00
78144;BME280;67394;52.522;13.622;2023-09-19T04:52:25;100146.81;;;16.33;98.94
78144;BME280;67394;52.522;13.622;2023-09-19T04:54:53;100146.94;;;16.30;99.44
78144;BME280;67394;52.522;13.622;2023-09-19T04:57:19;100145.06;;;16.33;99.54
78144;BME280;67394;52.522;13.622;2023-09-19T04:59:45;100146.97;;;16.28;98.32
78144;BME280;67394;52.522;13.622;2023-09-19T05:02:12;100152.09;;;16.30;98.35
78144;BME280;67394;52.522;13.622;2023-09-19T05:04:39;100141.94;;;16.24;98.70
78144;BME280;67394;52.522;13.622;2023-09-19T05:07:05;100147.22;;;16.21;98.55
78144;BME280;67394;52.522;13.622;2023-09-19T05:09:31;100145.41;;;16.23;98.51
78144;BME280;67394;52.522;13.622;2023-09-19T05:11:58;100155.75;;;16.23;97.88
78144;BME280;67394;52.522;13.622;2023-09-19T05:14:24;100160.25;;;16.18;98.63
78144;BME280;67394;52.522;13.622;2023-09-19T05:16:51;100168.00;;;16.18;98.75
78144;BME280;67394;52.522;13.622;2023-09-19T05:19:17;100174.09;;;16.15;98.90
78144;BME280;67394;52.522;13.622;2023-09-19T05:21:44;100183.66;;;16.13;99.15
78144;BME280;67394;52.522;13.622;2023-09-19T05:24:11;100179.47;;;16.09;99.54
78144;BME280;67394;52.522;13.622;2023-09-19T05:26:37;100185.38;;;16.13;99.31
78144;BME280;67394;52.522;13.622;2023-09-19T05:29:03;100188.13;;;16.08;99.88
78144;BME280;67394;52.522;13.622;2023-09-19T05:31:30;100190.75;;;16.06;99.71
78144;BME280;67394;52.522;13.622;2023-09-19T05:33:56;100199.22;;;16.11;98.90
78144;BME280;67394;52.522;13.622;2023-09-19T05:36:23;100198.47;;;16.08;99.26
78144;BME280;67394;52.522;13.622;2023-09-19T05:38:50;100203.66;;;16.08;98.31
78144;BME280;67394;52.522;13.622;2023-09-19T05:41:16;100193.06;;;16.16;98.24
78144;BME280;67394;52.522;13.622;2023-09-19T05:43:43;100206.91;;;16.13;97.89
78144;BME280;67394;52.522;13.622;2023-09-19T05:46:09;100215.53;;;16.14;97.30
78144;BME280;67394;52.522;13.622;2023-09-19T05:48:36;100206.91;;;16.13;97.61
78144;BME280;67394;52.522;13.622;2023-09-19T05:51:02;100218.16;;;16.12;98.09
78144;BME280;67394;52.522;13.622;2023-09-19T05:53:29;100226.75;;;16.13;97.55
78144;BME280;67394;52.522;13.622;2023-09-19T05:55:55;100219.16;;;16.08;98.27
78144;BME280;67394;52.522;13.622;2023-09-19T05:58:22;100220.09;;;16.05;98.21
78144;BME280;67394;52.522;13.622;2023-09-19T06:00:49;100224.28;;;16.09;98.46
78144;BME280;67394;52.522;13.622;2023-09-19T06:03:16;100235.53;;;16.08;98.14
78144;BME280;67394;52.522;13.622;2023-09-19T06:05:42;100245.91;;;16.07;98.44
78144;BME280;67394;52.522;13.622;2023-09-19T06:08:09;100246.72;;;16.09;97.96
78144;BME280;67394;52.522;13.622;2023-09-19T06:10:35;100244.16;;;16.07;98.46
78144;BME280;67394;52.522;13.622;2023-09-19T06:13:03;100241.63;;;16.06;98.68
78144;BME280;67394;52.522;13.622;2023-09-19T06:15:30;100251.03;;;16.08;98.03
78144;BME280;67394;52.522;13.622;2023-09-19T06:17:57;100257.72;;;16.16;97.21
78144;BME280;67394;52.522;13.622;2023-09-19T06:20:25;100259.41;;;16.17;96.85
78144;BME280;67394;52.522;13.622;2023-09-19T06:22:52;100264.63;;;16.15;97.53
78144;BME280;67394;52.522;13.622;2023-09-19T06:25:19;100274.00;;;16.19;96.87
78144;BME280;67394;52.522;13.622;2023-09-19T06:27:47;100267.97;;;16.19;97.34
78144;BME280;67394;52.522;13.622;2023-09-19T06:30:15;100280.66;;;16.26;96.65
78144;BME280;67394;52.522;13.622;2023-09-19T06:32:41;100272.03;;;16.27;96.45
78144;BME280;67394;52.522;13.622;2023-09-19T06:35:08;100279.69;;;16.30;96.57
78144;BME280;67394;52.522;13.622;2023-09-19T06:37:34;100278.84;;;16.30;96.34
78144;BME280;67394;52.522;13.622;2023-09-19T06:40:01;100289.94;;;16.33;94.95
78144;BME280;67394;52.522;13.622;2023-09-19T06:42:28;100287.31;;;16.35;95.39
78144;BME280;67394;52.522;13.622;2023-09-19T06:44:54;100282.94;;;16.37;95.49
78144;BME280;67394;52.522;13.622;2023-09-19T06:47:20;100293.28;;;16.37;96.23
78144;BME280;67394;52.522;13.622;2023-09-19T06:49:47;100294.00;;;16.42;95.78
78144;BME280;67394;52.522;13.622;2023-09-19T06:52:15;100304.97;;;16.50;94.60
78144;BME280;67394;52.522;13.622;2023-09-19T06:54:41;100303.19;;;16.52;94.91
78144;BME280;67394;52.522;13.622;2023-09-19T06:57:08;100301.19;;;16.60;93.50
78144;BME280;67394;52.522;13.622;2023-09-19T06:59:34;100300.22;;;16.64;94.03
78144;BME280;67394;52.522;13.622;2023-09-19T07:02:01;100306.13;;;16.69;94.34
78144;BME280;67394;52.522;13.622;2023-09-19T07:04:29;100311.13;;;16.74;92.43
78144;BME280;67394;52.522;13.622;2023-09-19T07:06:55;100303.38;;;16.74;91.26
78144;BME280;67394;52.522;13.622;2023-09-19T07:09:21;100300.56;;;16.81;90.77
78144;BME280;67394;52.522;13.622;2023-09-19T07:11:48;100312.41;;;16.89;93.07
78144;BME280;67394;52.522;13.622;2023-09-19T07:14:15;100303.53;;;16.96;90.40
78144;BME280;67394;52.522;13.622;2023-09-19T07:16:41;100307.47;;;17.07;90.95
78144;BME280;67394;52.522;13.622;2023-09-19T07:19:08;100299.97;;;17.26;89.54
78144;BME280;67394;52.522;13.622;2023-09-19T07:21:34;100313.97;;;17.45;89.12
78144;BME280;67394;52.522;13.622;2023-09-19T07:24:01;100311.69;;;17.61;88.69
78144;BME280;67394;52.522;13.622;2023-09-19T07:26:28;100317.91;;;17.82;85.51
78144;BME280;67394;52.522;13.622;2023-09-19T07:28:54;100323.31;;;18.01;85.06
78144;BME280;67394;52.522;13.622;2023-09-19T07:31:21;100316.78;;;18.12;83.67
78144;BME280;67394;52.522;13.622;2023-09-19T07:33:47;100321.06;;;18.37;82.83
78144;BME280;67394;52.522;13.622;2023-09-19T07:36:14;100320.00;;;18.42;82.25
78144;BME280;67394;52.522;13.622;2023-09-19T07:38:42;100333.03;;;18.41;78.84
78144;BME280;67394;52.522;13.622;2023-09-19T07:41:08;100328.25;;;18.30;79.03
78144;BME280;67394;52.522;13.622;2023-09-19T07:43:36;100340.03;;;18.39;79.78
78144;BME280;67394;52.522;13.622;2023-09-19T07:46:06;100334.84;;;18.39;77.87
78144;BME280;67394;52.522;13.622;2023-09-19T07:48:34;100341.28;;;18.52;78.02
78144;BME280;67394;52.522;13.622;2023-09-19T07:51:05;100342.13;;;18.52;77.20
78144;BME280;67394;52.522;13.622;2023-09-19T07:53:35;100343.41;;;18.41;73.75
78144;BME280;67394;52.522;13.622;2023-09-19T07:56:06;100341.31;;;18.50;75.75
78144;BME280;67394;52.522;13.622;2023-09-19T07:58:33;100345.41;;;18.56;75.37
78144;BME280;67394;52.522;13.622;2023-09-19T08:01:07;100345.72;;;18.48;75.08
78144;BME280;67394;52.522;13.622;2023-09-19T08:03:34;100356.56;;;18.59;75.23
78144;BME280;67394;52.522;13.622;2023-09-19T08:06:01;100362.94;;;18.74;74.44
78144;BME280;67394;52.522;13.622;2023-09-19T08:08:27;100375.78;;;18.77;73.30
78144;BME280;67394;52.522;13.622;2023-09-19T08:10:55;100377.13;;;18.87;73.01
78144;BME280;67394;52.522;13.622;2023-09-19T08:13:23;100375.38;;;18.88;71.74
78144;BME280;67394;52.522;13.622;2023-09-19T08:15:50;100376.59;;;18.79;70.47
78144;BME280;67394;52.522;13.622;2023-09-19T08:18:17;100374.22;;;18.73;70.53
78144;BME280;67394;52.522;13.622;2023-09-19T08:20:49;100355.47;;;18.65;70.06
78144;BME280;67394;52.522;13.622;2023-09-19T08:23:16;100355.16;;;18.74;69.08
78144;BME280;67394;52.522;13.622;2023-09-19T08:25:57;100359.78;;;18.66;67.46
78144;BME280;67394;52.522;13.622;2023-09-19T08:28:24;100361.97;;;18.77;68.20
78144;BME280;67394;52.522;13.622;2023-09-19T08:30:51;100366.56;;;18.70;68.41
78144;BME280;67394;52.522;13.622;2023-09-19T08:33:17;100369.31;;;18.65;69.24
78144;BME280;67394;52.522;13.622;2023-09-19T08:35:44;100365.13;;;18.38;68.60
78144;BME280;67394;52.522;13.622;2023-09-19T08:38:10;100367.91;;;18.34;69.45
78144;BME280;67394;52.522;13.622;2023-09-19T08:40:38;100362.78;;;18.32;70.15
78144;BME280;67394;52.522;13.622;2023-09-19T08:43:04;100371.00;;;18.20;70.06
78144;BME280;67394;52.522;13.622;2023-09-19T08:45:31;100379.34;;;18.28;69.24
78144;BME280;67394;52.522;13.622;2023-09-19T08:50:49;100375.50;;;18.63;69.46
78144;BME280;67394;52.522;13.622;2023-09-19T08:53:25;100384.72;;;18.70;68.98
78144;BME280;67394;52.522;13.622;2023-09-19T08:55:52;100379.09;;;18.59;67.46
78144;BME280;67394;52.522;13.622;2023-09-19T08:58:19;100391.31;;;18.79;68.85
78144;BME280;67394;52.522;13.622;2023-09-19T09:00:50;100384.44;;;18.99;67.31
78144;BME280;67394;52.522;13.622;2023-09-19T09:03:18;100397.97;;;19.08;65.53
78144;BME280;67394;52.522;13.622;2023-09-19T09:05:45;100395.88;;;18.95;66.29
78144;BME280;67394;52.522;13.622;2023-09-19T09:08:13;100398.34;;;18.98;66.29
78144;BME280;67394;52.522;13.622;2023-09-19T09:10:44;100400.75;;;18.81;65.94
78144;BME280;67394;52.522;13.622;2023-09-19T09:13:10;100405.41;;;18.73;65.79
78144;BME280;67394;52.522;13.622;2023-09-19T09:15:38;100407.41;;;18.65;65.50
78144;BME280;67394;52.522;13.622;2023-09-19T09:18:05;100415.50;;;18.81;65.98
78144;BME280;67394;52.522;13.622;2023-09-19T09:20:31;100413.81;;;19.01;65.80
78144;BME280;67394;52.522;13.622;2023-09-19T09:22:58;100410.53;;;18.96;64.60
78144;BME280;67394;52.522;13.622;2023-09-19T09:25:47;100419.00;;;19.01;63.35
78144;BME280;67394;52.522;13.622;2023-09-19T09:28:20;100427.53;;;19.27;64.38
78144;BME280;67394;52.522;13.622;2023-09-19T09:30:47;100423.13;;;19.51;64.81
78144;BME280;67394;52.522;13.622;2023-09-19T09:33:14;100411.50;;;19.59;63.46
78144;BME280;67394;52.522;13.622;2023-09-19T09:35:53;100420.03;;;19.83;61.71
78144;BME280;67394;52.522;13.622;2023-09-19T09:38:22;100413.56;;;19.92;60.07
78144;BME280;67394;52.522;13.622;2023-09-19T09:41:00;100416.56;;;20.03;60.63
78144;BME280;67394;52.522;13.622;2023-09-19T09:44:12;100418.84;;;20.10;59.94
78144;BME280;67394;52.522;13.622;2023-09-19T09:46:42;100425.59;;;20.35;58.81
78144;BME280;67394;52.522;13.622;2023-09-19T09:49:10;100427.88;;;20.42;58.37
78144;BME280;67394;52.522;13.622;2023-09-19T09:51:36;100422.44;;;20.47;57.80
78144;BME280;67394;52.522;13.622;2023-09-19T09:54:13;100417.31;;;20.25;57.62
78144;BME280;67394;52.522;13.622;2023-09-19T09:57:00;100414.31;;;20.34;56.98
78144;BME280;67394;52.522;13.622;2023-09-19T09:59:46;100425.66;;;20.54;57.18
78144;BME280;67394;52.522;13.622;2023-09-19T10:02:14;100428.94;;;20.38;55.90
78144;BME280;67394;52.522;13.622;2023-09-19T10:04:40;100425.91;;;20.48;56.87
78144;BME280;67394;52.522;13.622;2023-09-19T10:07:25;100423.19;;;20.51;55.27
78144;BME280;67394;52.522;13.622;2023-09-19T10:09:54;100424.38;;;20.43;55.81
78144;BME280;67394;52.522;13.622;2023-09-19T10:12:21;100426.63;;;20.51;53.21
78144;BME280;67394;52.522;13.622;2023-09-19T10:14:48;100420.06;;;20.42;52.76
78144;BME280;67394;52.522;13.622;2023-09-19T10:17:14;100435.03;;;20.76;52.67
78144;BME280;67394;52.522;13.622;2023-09-19T10:19:47;100422.75;;;20.78;51.67
78144;BME280;67394;52.522;13.622;2023-09-19T10:22:19;100441.22;;;20.74;51.50
78144;BME280;67394;52.522;13.622;2023-09-19T10:24:47;100426.91;;;20.82;51.27
78144;BME280;67394;52.522;13.622;2023-09-19T10:27:29;100426.38;;;21.12;51.37
78144;BME280;67394;52.522;13.622;2023-09-19T10:29:57;100429.50;;;21.20;51.65
78144;BME280;67394;52.522;13.622;2023-09-19T10:32:26;100424.28;;;21.01;49.13
78144;BME280;67394;52.522;13.622;2023-09-19T10:34:55;100424.84;;;21.08;50.02
78144;BME280;67394;52.522;13.622;2023-09-19T10:37:24;100420.19;;;21.14;49.46
78144;BME280;67394;52.522;13.622;2023-09-19T10:39:55;100430.13;;;20.88;47.83
78144;BME280;67394;52.522;13.622;2023-09-19T10:42:23;100422.75;;;20.97;49.51
78144;BME280;67394;52.522;13.622;2023-09-19T10:44:52;100416.81;;;21.12;48.39
78144;BME280;67394;52.522;13.622;2023-09-19T10:47:19;100421.91;;;20.97;47.63
78144;BME280;67394;52.522;13.622;2023-09-19T10:49:46;100414.44;;;20.89;48.38
78144;BME280;67394;52.522;13.622;2023-09-19T10:52:20;100419.91;;;21.21;48.75
78144;BME280;67394;52.522;13.622;2023-09-19T10:54:50;100417.53;;;20.97;48.47
78144;BME280;67394;52.522;13.622;2023-09-19T10:57:21;100428.53;;;20.85;49.43
78144;BME280;67394;52.522;13.622;2023-09-19T11:02:28;100433.44;;;21.10;48.91
78144;BME280;67394;52.522;13.622;2023-09-19T11:05:11;100414.41;;;21.27;49.84
78144;BME280;67394;52.522;13.622;2023-09-19T11:08:01;100425.31;;;21.52;46.59
78144;BME280;67394;52.522;13.622;2023-09-19T11:26:43;100437.66;;;21.31;45.74
78144;BME280;67394;52.522;13.622;2023-09-19T11:31:52;100445.66;;;20.72;47.30
78144;BME280;67394;52.522;13.622;2023-09-19T11:34:38;100432.53;;;20.92;46.48
78144;BME280;67394;52.522;13.622;2023-09-19T11:39:38;100443.47;;;20.81;44.55
78144;BME280;67394;52.522;13.622;2023-09-19T11:48:08;100440.84;;;20.63;46.41
78144;BME280;67394;52.522;13.622;2023-09-19T11:50:35;100446.97;;;20.62;45.80
78144;BME280;67394;52.522;13.622;2023-09-19T11:53:02;100445.56;;;20.73;46.27
78144;BME280;67394;52.522;13.622;2023-09-19T11:55:29;100440.63;;;20.67;46.02
78144;BME280;67394;52.522;13.622;2023-09-19T11:57:56;100443.47;;;20.63;46.10
78144;BME280;67394;52.522;13.622;2023-09-19T12:00:23;100436.13;;;20.52;47.05
78144;BME280;67394;52.522;13.622;2023-09-19T12:02:55;100448.97;;;20.36;47.36
78144;BME280;67394;52.522;13.622;2023-09-19T12:05:31;100449.88;;;20.35;46.56
78144;BME280;67394;52.522;13.622;2023-09-19T12:07:57;100437.16;;;20.48;45.83
78144;BME280;67394;52.522;13.622;2023-09-19T12:10:24;100452.91;;;20.84;46.97
78144;BME280;67394;52.522;13.622;2023-09-19T12:12:52;100445.69;;;20.89;45.69
78144;BME280;67394;52.522;13.622;2023-09-19T12:15:25;100445.50;;;20.75;44.15
78144;BME280;67394;52.522;13.622;2023-09-19T12:17:52;100442.75;;;20.97;45.44
78144;BME280;67394;52.522;13.622;2023-09-19T12:20:19;100457.03;;;20.69;43.94
78144;BME280;67394;52.522;13.622;2023-09-19T12:22:47;100461.03;;;20.58;44.92
78144;BME280;67394;52.522;13.622;2023-09-19T12:25:14;100455.94;;;20.94;46.17
78144;BME280;67394;52.522;13.622;2023-09-19T12:27:41;100447.81;;;21.00;44.10
78144;BME280;67394;52.522;13.622;2023-09-19T12:30:09;100448.94;;;21.13;45.40
78144;BME280;67394;52.522;13.622;2023-09-19T12:32:52;100454.72;;;21.38;45.22
78144;BME280;67394;52.522;13.622;2023-09-19T12:35:29;100445.06;;;21.58;44.06
78144;BME280;67394;52.522;13.622;2023-09-19T12:37:56;100438.84;;;21.60;42.77
78144;BME280;67394;52.522;13.622;2023-09-19T12:40:23;100454.00;;;21.52;43.60
78144;BME280;67394;52.522;13.622;2023-09-19T12:42:53;100453.59;;;21.25;43.24
78144;BME280;67394;52.522;13.622;2023-09-19T12:45:20;100460.91;;;21.36;44.14
78144;BME280;67394;52.522;13.622;2023-09-19T12:51:04;100440.66;;;21.41;43.47
78144;BME280;67394;52.522;13.622;2023-09-19T12:53:32;100442.19;;;21.45;42.71
78144;BME280;67394;52.522;13.622;2023-09-19T12:55:59;100441.75;;;21.37;43.79
78144;BME280;67394;52.522;13.622;2023-09-19T12:58:26;100433.34;;;21.11;44.30
78144;BME280;67394;52.522;13.622;2023-09-19T13:00:53;100427.38;;;21.28;42.78
78144;BME280;67394;52.522;13.622;2023-09-19T13:05:50;100431.63;;;21.48;43.26
78144;BME280;67394;52.522;13.622;2023-09-19T13:08:28;100432.47;;;21.66;43.75
78144;BME280;67394;52.522;13.622;2023-09-19T13:13:31;100445.19;;;21.37;42.74
78144;BME280;67394;52.522;13.622;2023-09-19T13:15:59;100431.59;;;21.31;42.64
78144;BME280;67394;52.522;13.622;2023-09-19T13:18:25;100439.91;;;21.39;43.03
78144;BME280;67394;52.522;13.622;2023-09-19T13:21:08;100430.06;;;21.44;42.27
78144;BME280;67394;52.522;13.622;2023-09-19T13:23:35;100434.72;;;21.20;43.06
78144;BME280;67394;52.522;13.622;2023-09-19T13:26:01;100432.88;;;21.03;43.19
78144;BME280;67394;52.522;13.622;2023-09-19T13:28:28;100439.06;;;21.19;44.08
78144;BME280;67394;52.522;13.622;2023-09-19T13:30:55;100432.59;;;21.28;43.71
78144;BME280;67394;52.522;13.622;2023-09-19T13:33:21;100440.25;;;21.12;43.88
78144;BME280;67394;52.522;13.622;2023-09-19T13:35:47;100446.28;;;20.96;43.77
78144;BME280;67394;52.522;13.622;2023-09-19T13:38:14;100449.94;;;20.73;43.28
78144;BME280;67394;52.522;13.622;2023-09-19T13:40:41;100444.44;;;20.79;44.37